Time;durP1;ratioP1;P1;durP2;ratioP2;P2;SDS_P1;SDS_P2;PMS_P1;PMS_P2;Temp;Humidity;BMP_temperature;BMP_pressure;BME280_temperature;BME280_humidity;BME280_pressure;Samples;Min_cycle;Max_cycle;Signal;HPM_P1;HPM_P2
2021/08/20 00:01:30;;;;;;;4.67;4.20;;;18.80;85.70;;;;;;5055744;28;20426;-74
2021/08/20 00:03:58;;;;;;;9.40;4.90;;;18.70;85.70;;;;;;5055486;28;20932;-74
2021/08/20 00:06:25;;;;;;;4.33;4.03;;;18.70;86.10;;;;;;5055343;28;20468;-74
2021/08/20 00:08:51;;;;;;;6.30;4.47;;;18.60;86.00;;;;;;5055436;28;20579;-74
2021/08/20 00:11:18;;;;;;;5.33;4.83;;;18.60;86.20;;;;;;5055505;28;20446;-74
2021/08/20 00:13:45;;;;;;;6.70;4.60;;;18.50;86.50;;;;;;5055381;28;20441;-74
2021/08/20 00:16:11;;;;;;;3.87;3.57;;;18.40;86.90;;;;;;5055359;28;20430;-74
2021/08/20 00:18:38;;;;;;;6.83;4.60;;;18.50;87.50;;;;;;5054809;28;20488;-74
2021/08/20 00:21:06;;;;;;;7.13;4.37;;;18.40;87.50;;;;;;5054897;28;20449;-74
2021/08/20 00:23:33;;;;;;;5.70;4.33;;;18.50;88.00;;;;;;5055182;28;20446;-74
2021/08/20 00:25:59;;;;;;;4.63;4.23;;;18.40;87.80;;;;;;5055083;28;20472;-74
2021/08/20 00:28:26;;;;;;;4.77;3.93;;;18.50;88.20;;;;;;5055007;28;20519;-74
2021/08/20 00:30:53;;;;;;;5.00;4.60;;;18.50;88.20;;;;;;5055126;28;20425;-74
2021/08/20 00:33:19;;;;;;;5.23;4.20;;;18.40;88.20;;;;;;5054932;28;20449;-74
2021/08/20 00:35:46;;;;;;;6.43;4.33;;;18.40;88.30;;;;;;5054910;28;20450;-74
2021/08/20 00:38:14;;;;;;;5.87;4.20;;;18.40;88.50;;;;;;5054684;28;20473;-74
2021/08/20 00:40:41;;;;;;;7.40;4.30;;;18.40;88.40;;;;;;5054808;28;20434;-74
2021/08/20 00:43:08;;;;;;;4.63;4.10;;;18.30;88.70;;;;;;5054747;28;20454;-74
2021/08/20 00:45:36;;;;;;;6.67;4.13;;;18.30;88.60;;;;;;5054698;28;20449;-74
2021/08/20 00:48:04;;;;;;;5.90;4.73;;;18.40;88.90;;;;;;5054589;28;20461;-74
2021/08/20 00:50:32;;;;;;;8.30;4.93;;;18.30;88.60;;;;;;5054565;28;20441;-74
2021/08/20 00:52:59;;;;;;;4.47;4.17;;;18.30;88.60;;;;;;5054559;28;20426;-74
2021/08/20 00:55:27;;;;;;;4.80;4.40;;;18.30;88.90;;;;;;5054512;28;20453;-74
2021/08/20 00:57:54;;;;;;;12.30;5.10;;;18.20;88.60;;;;;;5054057;28;20473;-74
2021/08/20 01:00:22;;;;;;;6.93;4.70;;;18.20;88.60;;;;;;5053898;28;20489;-74
2021/08/20 01:02:48;;;;;;;7.60;4.93;;;18.20;88.90;;;;;;5054302;28;20893;-74
2021/08/20 01:05:19;;;;;;;6.13;5.30;;;18.10;88.90;;;;;;5054314;28;20453;-74
2021/08/20 01:07:45;;;;;;;5.87;5.23;;;18.10;88.90;;;;;;5054228;28;20466;-74
2021/08/20 01:10:13;;;;;;;6.63;6.03;;;18.10;89.00;;;;;;5054274;28;20429;-74
2021/08/20 01:12:42;;;;;;;11.57;5.40;;;18.10;88.70;;;;;;5054382;28;20450;-74
2021/08/20 01:15:10;;;;;;;6.80;6.20;;;18.10;89.00;;;;;;5053817;28;20445;-74
2021/08/20 01:17:36;;;;;;;5.97;5.37;;;18.10;89.00;;;;;;5053856;28;20441;-74
2021/08/20 01:20:07;;;;;;;7.40;6.70;;;18.10;88.60;;;;;;5053641;28;21017;-74
2021/08/20 01:22:33;;;;;;;8.00;7.20;;;18.10;87.80;;;;;;5054067;28;20851;-74
2021/08/20 01:25:03;;;;;;;9.00;6.90;;;18.10;88.10;;;;;;5053965;28;20446;-74
2021/08/20 01:27:33;;;;;;;7.90;7.20;;;18.10;88.70;;;;;;5054908;28;20433;-74
2021/08/20 01:29:59;;;;;;;7.87;7.07;;;18.10;88.60;;;;;;5053831;28;20458;-74
2021/08/20 01:32:26;;;;;;;9.30;8.37;;;18.00;87.80;;;;;;5053815;28;20474;-74
2021/08/20 01:34:53;;;;;;;11.20;8.13;;;18.00;87.60;;;;;;5053799;28;20477;-74
2021/08/20 01:37:20;;;;;;;9.33;7.73;;;18.00;87.50;;;;;;5053410;28;20944;-74
2021/08/20 01:39:47;;;;;;;10.20;9.10;;;18.00;88.00;;;;;;5053599;28;20481;-74
2021/08/20 01:42:15;;;;;;;10.87;7.90;;;18.00;88.20;;;;;;5053689;28;20453;-74
2021/08/20 01:44:42;;;;;;;9.17;8.13;;;17.90;88.00;;;;;;5053865;28;20442;-74
2021/08/20 01:47:10;;;;;;;7.93;7.13;;;17.90;87.90;;;;;;5053552;28;20533;-74
2021/08/20 01:49:38;;;;;;;8.70;7.83;;;17.90;87.80;;;;;;5053504;28;20515;-74
2021/08/20 01:52:05;;;;;;;10.63;8.60;;;17.90;88.00;;;;;;5053669;28;20881;-74
2021/08/20 01:54:31;;;;;;;9.30;8.40;;;17.90;88.10;;;;;;5053523;28;20445;-74
2021/08/20 01:56:58;;;;;;;10.97;8.77;;;17.90;88.10;;;;;;5053504;28;20494;-74
2021/08/20 01:59:26;;;;;;;9.90;8.97;;;17.80;88.10;;;;;;5053149;28;20547;-74
2021/08/20 02:01:53;;;;;;;9.97;8.97;;;17.80;89.10;;;;;;5053455;28;20449;-74
2021/08/20 02:04:20;;;;;;;12.07;9.03;;;17.80;88.40;;;;;;5053115;28;21013;-74
2021/08/20 02:06:46;;;;;;;8.60;7.60;;;17.70;88.50;;;;;;5053073;28;20952;-74
2021/08/20 02:09:13;;;;;;;8.70;7.90;;;17.60;88.30;;;;;;5053038;28;20871;-74
2021/08/20 02:11:40;;;;;;;11.90;9.17;;;17.60;88.80;;;;;;5053506;28;20855;-74
2021/08/20 02:14:07;;;;;;;10.13;8.43;;;17.60;88.40;;;;;;5053303;28;20445;-74
2021/08/20 02:16:35;;;;;;;9.27;8.37;;;17.50;88.40;;;;;;5053321;28;20490;-74
2021/08/20 02:19:01;;;;;;;9.10;7.87;;;17.60;88.50;;;;;;5053013;28;20520;-74
2021/08/20 02:21:28;;;;;;;8.73;7.77;;;17.60;88.50;;;;;;5053027;28;20442;-74
2021/08/20 02:23:55;;;;;;;13.23;7.30;;;17.60;88.60;;;;;;5053135;28;20472;-74
2021/08/20 02:26:21;;;;;;;9.47;8.40;;;17.50;88.70;;;;;;5052929;28;20449;-74
2021/08/20 02:28:48;;;;;;;11.70;9.13;;;17.50;88.60;;;;;;5054823;28;20468;-74
2021/08/20 02:31:15;;;;;;;9.03;8.17;;;17.40;88.40;;;;;;5057082;28;20453;-74
2021/08/20 02:33:45;;;;;;;9.60;8.40;;;17.40;88.60;;;;;;5056716;28;20947;-74
2021/08/20 02:36:12;;;;;;;9.57;8.67;;;17.40;88.60;;;;;;5056953;28;20487;-74
2021/08/20 02:38:39;;;;;;;10.63;8.33;;;17.40;88.60;;;;;;5056918;28;20469;-74
2021/08/20 02:41:06;;;;;;;9.80;8.90;;;17.40;88.70;;;;;;5056764;28;20484;-74
2021/08/20 02:43:33;;;;;;;9.90;8.90;;;17.30;88.60;;;;;;5056748;28;20932;-74
2021/08/20 02:46:00;;;;;;;9.07;8.13;;;17.30;88.90;;;;;;5056721;28;20453;-74
2021/08/20 02:48:26;;;;;;;9.70;8.80;;;17.30;89.00;;;;;;5056661;28;20828;-74
2021/08/20 02:50:55;;;;;;;9.40;8.50;;;17.30;89.30;;;;;;5056422;28;20453;-74
2021/08/20 02:53:22;;;;;;;9.80;7.70;;;17.30;89.40;;;;;;5056423;28;20927;-74
2021/08/20 02:55:49;;;;;;;7.90;7.20;;;17.40;89.40;;;;;;5057201;28;20453;-74
2021/08/20 02:58:15;;;;;;;9.43;7.83;;;17.40;89.10;;;;;;5056336;28;20998;-74
2021/08/20 03:00:42;;;;;;;9.00;7.47;;;17.40;89.00;;;;;;5056390;28;20489;-74
2021/08/20 03:03:11;;;;;;;9.00;7.50;;;17.40;89.00;;;;;;5056450;28;20460;-74
2021/08/20 03:05:37;;;;;;;7.70;6.97;;;17.40;89.30;;;;;;5056092;28;20445;-74
2021/08/20 03:08:06;;;;;;;7.57;6.87;;;17.40;90.10;;;;;;5056390;28;20461;-74
2021/08/20 03:10:33;;;;;;;10.40;7.03;;;17.40;90.00;;;;;;5056072;28;20441;-74
2021/08/20 03:13:00;;;;;;;8.73;6.93;;;17.40;89.90;;;;;;5056276;28;20853;-74
2021/08/20 03:15:26;;;;;;;8.70;6.70;;;17.40;89.90;;;;;;5056338;28;20444;-74
2021/08/20 03:17:53;;;;;;;7.73;6.90;;;17.40;89.70;;;;;;5056134;28;20472;-74
2021/08/20 03:20:20;;;;;;;9.70;7.70;;;17.50;89.90;;;;;;5056348;28;20473;-74
2021/08/20 03:22:47;;;;;;;13.50;6.73;;;17.50;89.90;;;;;;5056217;28;20429;-74
2021/08/20 03:25:15;;;;;;;10.30;6.87;;;17.50;89.80;;;;;;5056139;28;20445;-74
2021/08/20 03:27:42;;;;;;;10.43;6.80;;;17.60;90.00;;;;;;5055862;28;20450;-74
2021/08/20 03:30:10;;;;;;;9.97;7.60;;;17.70;90.10;;;;;;5056035;28;20657;-74
2021/08/20 03:32:37;;;;;;;10.40;7.37;;;17.70;90.20;;;;;;5056005;28;20445;-74
2021/08/20 03:35:04;;;;;;;7.60;6.70;;;17.70;90.10;;;;;;5056057;28;20781;-74
2021/08/20 03:37:31;;;;;;;9.43;6.77;;;17.70;90.10;;;;;;5056104;28;20429;-74
2021/08/20 03:39:58;;;;;;;10.20;7.10;;;17.70;90.00;;;;;;5055217;28;20480;-74
2021/08/20 03:42:26;;;;;;;15.20;7.23;;;17.70;90.10;;;;;;5055741;28;20467;-74
2021/08/20 03:44:52;;;;;;;10.93;6.93;;;17.60;90.00;;;;;;5055544;28;20954;-74
2021/08/20 03:47:19;;;;;;;11.87;7.40;;;17.70;90.10;;;;;;5056456;28;20456;-74
2021/08/20 03:49:46;;;;;;;10.43;6.60;;;17.70;90.30;;;;;;5055711;28;20458;-74
2021/08/20 03:52:12;;;;;;;11.10;7.17;;;17.70;90.40;;;;;;5055715;28;20446;-74
2021/08/20 03:54:39;;;;;;;9.53;7.63;;;17.70;90.30;;;;;;5055573;28;20478;-74
2021/08/20 03:57:06;;;;;;;10.30;7.33;;;17.80;90.40;;;;;;5055389;28;20453;-74
2021/08/20 03:59:34;;;;;;;9.70;7.67;;;17.80;90.50;;;;;;5054925;28;20858;-74
2021/08/20 04:02:03;;;;;;;10.10;8.23;;;17.70;90.40;;;;;;5055557;28;20449;-74
2021/08/20 04:04:30;;;;;;;8.07;7.37;;;17.70;90.50;;;;;;5055409;28;20477;-74
2021/08/20 04:06:57;;;;;;;13.00;7.43;;;17.70;90.60;;;;;;5055327;28;20449;-74
2021/08/20 04:09:24;;;;;;;11.00;8.03;;;17.70;90.80;;;;;;5055287;28;20461;-74
2021/08/20 04:11:50;;;;;;;9.33;8.00;;;17.70;90.80;;;;;;5054835;28;20438;-74
2021/08/20 04:14:17;;;;;;;12.40;7.50;;;17.70;90.80;;;;;;5055214;28;20450;-74
2021/08/20 04:16:45;;;;;;;10.20;8.20;;;17.70;90.90;;;;;;5055030;28;20449;-74
2021/08/20 04:19:12;;;;;;;13.47;8.40;;;17.70;90.90;;;;;;5054702;28;20462;-74
2021/08/20 04:21:39;;;;;;;9.70;8.13;;;17.70;91.00;;;;;;5054955;28;20484;-74
2021/08/20 04:24:06;;;;;;;13.20;8.20;;;17.70;91.00;;;;;;5054698;28;20814;-74
2021/08/20 04:26:33;;;;;;;13.90;8.87;;;17.70;91.10;;;;;;5054900;28;20495;-74
2021/08/20 04:29:00;;;;;;;10.87;8.10;;;17.70;91.10;;;;;;5054820;28;20462;-74
2021/08/20 04:31:26;;;;;;;9.70;7.73;;;17.70;91.20;;;;;;5054864;28;20497;-74
2021/08/20 04:33:54;;;;;;;9.90;8.30;;;17.70;91.30;;;;;;5054479;28;20450;-74
2021/08/20 04:36:21;;;;;;;11.10;7.77;;;17.70;91.30;;;;;;5055101;28;20449;-74
2021/08/20 04:38:48;;;;;;;11.97;8.30;;;17.80;91.30;;;;;;5055160;28;20465;-74
2021/08/20 04:41:15;;;;;;;12.50;8.80;;;17.80;91.40;;;;;;5054778;28;20488;-74
2021/08/20 04:43:41;;;;;;;13.57;11.57;;;17.80;91.40;;;;;;5054667;28;20449;-74
2021/08/20 04:46:08;;;;;;;12.93;8.70;;;17.90;91.40;;;;;;5054533;28;20426;-74
2021/08/20 04:48:35;;;;;;;10.90;8.80;;;17.90;91.40;;;;;;5054213;28;20468;-74
2021/08/20 04:51:03;;;;;;;10.20;8.10;;;17.90;91.30;;;;;;5054613;28;20446;-74
2021/08/20 04:53:30;;;;;;;14.57;9.50;;;18.00;91.40;;;;;;5053671;28;20544;-74
2021/08/20 04:55:58;;;;;;;12.47;9.67;;;18.00;91.30;;;;;;5054196;28;20507;-74
2021/08/20 04:58:24;;;;;;;10.67;9.37;;;18.00;91.40;;;;;;5054402;28;20531;-75
2021/08/20 05:00:51;;;;;;;10.93;9.60;;;18.00;91.30;;;;;;5054095;28;20492;-74
2021/08/20 05:03:18;;;;;;;11.70;9.50;;;18.00;91.20;;;;;;5054249;28;20452;-74
2021/08/20 05:05:46;;;;;;;14.20;10.33;;;18.10;91.30;;;;;;5054342;28;20786;-74
2021/08/20 05:08:14;;;;;;;13.77;10.13;;;18.10;91.30;;;;;;5054082;28;20461;-75
2021/08/20 05:10:41;;;;;;;12.17;9.70;;;18.10;91.20;;;;;;5053733;28;20495;-74
2021/08/20 05:13:08;;;;;;;17.07;10.60;;;18.10;91.10;;;;;;5054657;28;20783;-75
2021/08/20 05:15:35;;;;;;;14.33;9.67;;;18.10;91.10;;;;;;5053804;28;20884;-75
2021/08/20 05:18:02;;;;;;;19.53;10.67;;;18.20;91.30;;;;;;5053925;28;20544;-74
2021/08/20 05:20:29;;;;;;;15.33;10.23;;;18.20;91.30;;;;;;5053769;28;20569;-74
2021/08/20 05:22:57;;;;;;;12.50;10.10;;;18.20;91.20;;;;;;5053898;28;20426;-75
2021/08/20 05:25:27;;;;;;;15.83;11.70;;;18.30;91.20;;;;;;5053723;28;20955;-75
2021/08/20 05:27:54;;;;;;;13.97;10.40;;;18.30;91.10;;;;;;5053878;28;20473;-75
2021/08/20 05:30:21;;;;;;;12.43;9.73;;;18.30;91.10;;;;;;5053859;28;20444;-75
2021/08/20 05:32:48;;;;;;;15.20;9.93;;;18.40;91.10;;;;;;5053839;28;20450;-75
2021/08/20 05:35:16;;;;;;;11.90;10.10;;;18.40;91.00;;;;;;5053576;28;20437;-75
2021/08/20 05:37:43;;;;;;;19.63;10.63;;;18.40;90.90;;;;;;5053626;28;20437;-75
2021/08/20 05:40:11;;;;;;;14.77;11.13;;;18.50;90.90;;;;;;5053119;28;20878;-75
2021/08/20 05:42:39;;;;;;;18.73;11.37;;;18.50;90.90;;;;;;5053268;28;20821;-75
2021/08/20 05:45:07;;;;;;;16.90;10.33;;;18.50;90.90;;;;;;5053726;28;20450;-75
2021/08/20 05:47:34;;;;;;;14.90;11.23;;;18.50;90.80;;;;;;5053665;28;20852;-75
2021/08/20 05:50:01;;;;;;;12.87;10.60;;;18.60;90.90;;;;;;5053790;28;20457;-75
2021/08/20 05:52:28;;;;;;;14.53;11.50;;;18.70;91.00;;;;;;5053574;28;20480;-75
2021/08/20 05:54:54;;;;;;;12.73;11.30;;;18.70;90.90;;;;;;5053070;28;20967;-74
2021/08/20 05:57:21;;;;;;;16.40;12.20;;;18.70;90.80;;;;;;5053251;28;20452;-74
2021/08/20 05:59:49;;;;;;;12.87;10.87;;;18.80;90.80;;;;;;5052862;28;20473;-74
2021/08/20 06:02:16;;;;;;;13.73;10.53;;;18.80;90.70;;;;;;5052818;28;20477;-75
2021/08/20 06:04:43;;;;;;;13.90;11.83;;;18.80;90.60;;;;;;5052707;28;20885;-75
2021/08/20 06:07:11;;;;;;;15.20;11.70;;;18.90;90.70;;;;;;5053051;28;20457;-75
2021/08/20 06:09:38;;;;;;;13.57;12.07;;;19.00;90.70;;;;;;5053141;28;20525;-75
2021/08/20 06:12:06;;;;;;;12.90;10.83;;;19.00;90.60;;;;;;5052607;28;20528;-75
2021/08/20 06:14:33;;;;;;;13.87;10.23;;;19.00;90.40;;;;;;5052956;28;20426;-75
2021/08/20 06:17:01;;;;;;;14.00;10.93;;;19.00;90.40;;;;;;5053023;28;20957;-75
2021/08/20 06:19:28;;;;;;;14.97;12.27;;;19.10;90.40;;;;;;5052613;28;21002;-75
2021/08/20 06:21:55;;;;;;;17.33;13.37;;;19.10;90.40;;;;;;5052926;28;20488;-75
2021/08/20 06:24:21;;;;;;;16.50;12.97;;;19.10;90.40;;;;;;5052594;28;20453;-75
2021/08/20 06:26:49;;;;;;;16.20;11.80;;;19.20;90.50;;;;;;5052914;28;20858;-75
2021/08/20 06:29:19;;;;;;;13.40;11.60;;;19.30;90.30;;;;;;5053848;28;20560;-75
2021/08/20 06:31:46;;;;;;;13.77;11.20;;;19.40;90.30;;;;;;5053913;28;20461;-75
2021/08/20 06:34:14;;;;;;;13.70;11.07;;;19.50;90.20;;;;;;5052449;28;20939;-75
2021/08/20 06:36:41;;;;;;;14.43;12.00;;;19.50;90.00;;;;;;5052676;28;20445;-75
2021/08/20 06:39:08;;;;;;;15.63;12.17;;;19.50;89.70;;;;;;5052937;28;20470;-75
2021/08/20 06:41:35;;;;;;;12.20;11.00;;;19.50;89.90;;;;;;5052786;28;20486;-75
2021/08/20 06:44:02;;;;;;;15.00;11.90;;;19.60;90.00;;;;;;5054884;28;20480;-79
2021/08/20 06:46:29;;;;;;;14.37;12.00;;;19.70;90.00;;;;;;5057516;28;20445;-78
2021/08/20 06:48:56;;;;;;;13.10;11.13;;;19.70;89.80;;;;;;5059847;28;20461;-79
2021/08/20 06:51:24;;;;;;;14.07;10.50;;;19.80;89.60;;;;;;5060566;28;20448;-78
2021/08/20 06:53:51;;;;;;;19.03;12.70;;;19.80;89.20;;;;;;5061671;28;20802;-79
2021/08/20 06:56:17;;;;;;;13.73;11.33;;;19.90;89.00;;;;;;5054580;28;20905;-75
2021/08/20 06:58:44;;;;;;;12.80;10.97;;;19.90;88.90;;;;;;5052404;28;20465;-75
2021/08/20 07:01:14;;;;;;;10.73;9.73;;;20.00;88.90;;;;;;5052549;28;20508;-75
2021/08/20 07:03:41;;;;;;;11.37;10.17;;;20.20;88.80;;;;;;5056749;28;20540;-77
2021/08/20 07:06:08;;;;;;;16.07;11.87;;;20.30;88.00;;;;;;5053764;28;20426;-77
2021/08/20 07:08:36;;;;;;;14.03;10.47;;;20.40;87.30;;;;;;5053673;28;20480;-77
2021/08/20 07:11:02;;;;;;;14.07;11.50;;;20.60;87.00;;;;;;5053923;28;20448;-78
2021/08/20 07:13:29;;;;;;;12.20;10.97;;;20.70;86.60;;;;;;5054425;28;20456;-78
2021/08/20 07:15:56;;;;;;;12.60;10.83;;;20.90;86.10;;;;;;5056999;28;20525;-78
2021/08/20 07:18:23;;;;;;;10.97;9.80;;;21.00;85.70;;;;;;5058831;28;20495;-78
2021/08/20 07:20:49;;;;;;;11.43;9.80;;;21.00;84.60;;;;;;5058623;28;20469;-78
2021/08/20 07:23:16;;;;;;;9.23;8.33;;;21.10;84.70;;;;;;5058717;28;20503;-78
2021/08/20 07:25:44;;;;;;;9.73;8.30;;;21.10;84.40;;;;;;5059138;28;20472;-78
2021/08/20 07:28:11;;;;;;;11.67;9.00;;;21.10;84.10;;;;;;5058423;28;20474;-78
2021/08/20 07:30:38;;;;;;;11.40;8.43;;;21.10;84.30;;;;;;5058667;28;20441;-78
2021/08/20 07:33:05;;;;;;;9.67;8.77;;;21.10;83.80;;;;;;5058778;28;20457;-78
2021/08/20 07:35:31;;;;;;;10.20;8.73;;;21.10;84.50;;;;;;5058616;28;20441;-78
2021/08/20 07:37:58;;;;;;;9.53;8.63;;;21.20;83.90;;;;;;5058902;28;20469;-78
2021/08/20 07:40:25;;;;;;;10.53;8.77;;;21.20;82.60;;;;;;5057834;28;20449;-78
2021/08/20 07:42:53;;;;;;;7.90;6.90;;;21.30;82.60;;;;;;5058567;28;20492;-78
2021/08/20 07:45:20;;;;;;;10.03;8.67;;;21.40;83.40;;;;;;5058597;28;20453;-78
2021/08/20 07:47:47;;;;;;;9.23;8.03;;;21.40;81.90;;;;;;5058018;28;20465;-78
2021/08/20 07:50:14;;;;;;;8.37;7.03;;;21.50;81.40;;;;;;5058854;28;20446;-78
2021/08/20 07:52:41;;;;;;;8.37;7.20;;;21.50;82.40;;;;;;5058256;28;20433;-78
2021/08/20 07:55:09;;;;;;;9.10;6.53;;;21.60;81.60;;;;;;5060000;28;20445;-78
2021/08/20 07:57:45;;;;;;;8.10;6.13;;;21.70;81.20;;;;;;5060100;28;20438;-78
2021/08/20 08:00:15;;;;;;;6.70;6.10;;;21.70;80.90;;;;;;5058907;28;20461;-78
2021/08/20 08:02:42;;;;;;;7.03;5.77;;;21.70;81.40;;;;;;5058515;28;20855;-78
2021/08/20 08:05:09;;;;;;;5.77;5.27;;;21.80;81.50;;;;;;5058513;28;20496;-78
2021/08/20 08:07:36;;;;;;;5.80;5.20;;;21.90;80.40;;;;;;5058783;28;20442;-78
2021/08/20 08:10:03;;;;;;;5.73;5.27;;;21.90;79.80;;;;;;5057635;28;20939;-78
2021/08/20 08:12:30;;;;;;;7.20;5.97;;;21.90;78.90;;;;;;5058119;28;20449;-78
2021/08/20 08:14:57;;;;;;;5.67;5.13;;;21.90;79.30;;;;;;5059652;28;20449;-78
2021/08/20 08:17:25;;;;;;;7.00;5.43;;;21.90;79.80;;;;;;5060012;28;20454;-78
2021/08/20 08:19:52;;;;;;;9.33;5.90;;;21.90;79.70;;;;;;5059349;28;20809;-78
2021/08/20 08:22:18;;;;;;;6.30;5.40;;;21.90;79.30;;;;;;5059256;28;20481;-79
2021/08/20 08:24:45;;;;;;;6.90;6.00;;;21.90;79.50;;;;;;5059189;28;20448;-78
2021/08/20 08:27:12;;;;;;;6.10;5.13;;;21.90;79.80;;;;;;5059291;28;20449;-79
2021/08/20 08:29:39;;;;;;;5.43;4.93;;;21.90;79.70;;;;;;5057608;28;20464;-78
2021/08/20 08:32:06;;;;;;;6.03;5.43;;;22.10;79.40;;;;;;5058413;28;20437;-78
2021/08/20 08:34:34;;;;;;;6.77;5.70;;;22.20;79.10;;;;;;5058731;28;20426;-79
2021/08/20 08:37:01;;;;;;;6.30;5.70;;;22.40;79.80;;;;;;5058712;28;20434;-78
2021/08/20 08:39:27;;;;;;;6.40;5.80;;;22.60;79.50;;;;;;5061183;28;20470;-78
2021/08/20 08:41:54;;;;;;;5.50;5.00;;;22.80;80.60;;;;;;5061236;28;20481;-78
2021/08/20 08:44:21;;;;;;;6.23;5.47;;;22.90;76.70;;;;;;5063351;28;20434;-78
2021/08/20 08:46:48;;;;;;;5.00;4.30;;;22.60;76.90;;;;;;5059315;28;20447;-78
2021/08/20 08:49:21;;;;;;;5.20;4.80;;;22.50;78.60;;;;;;5057856;28;20487;-78
2021/08/20 08:51:49;;;;;;;3.50;3.20;;;22.30;79.90;;;;;;5057766;28;20425;-78
2021/08/20 08:54:16;;;;;;;4.07;2.87;;;22.00;81.20;;;;;;5057413;28;20456;-78
2021/08/20 08:56:43;;;;;;;3.67;2.83;;;22.00;82.10;;;;;;5058155;28;20433;-78
2021/08/20 08:59:10;;;;;;;2.37;2.17;;;22.00;83.10;;;;;;5057700;28;20516;-78
2021/08/20 09:01:38;;;;;;;2.70;2.30;;;22.10;83.00;;;;;;5058885;28;20814;-78
2021/08/20 09:04:10;;;;;;;2.40;2.10;;;22.10;81.70;;;;;;5057690;28;20503;-78
2021/08/20 09:06:39;;;;;;;1.80;1.70;;;22.00;81.90;;;;;;5057421;28;20536;-78
2021/08/20 09:09:08;;;;;;;2.13;1.77;;;22.00;83.00;;;;;;5057015;28;20481;-78
2021/08/20 09:11:35;;;;;;;2.07;1.97;;;21.90;82.40;;;;;;5057319;28;20441;-78
2021/08/20 09:14:02;;;;;;;1.67;1.50;;;21.90;83.10;;;;;;5058060;28;20473;-78
2021/08/20 09:16:37;;;;;;;1.63;1.53;;;22.00;83.40;;;;;;5057614;28;20441;-78
2021/08/20 09:19:09;;;;;;;1.50;1.40;;;22.20;83.30;;;;;;5056572;28;20465;-78
2021/08/20 09:21:36;;;;;;;1.90;0.80;;;22.30;82.00;;;;;;5056453;28;20477;-78
2021/08/20 09:24:03;;;;;;;0.70;0.60;;;22.20;80.00;;;;;;5056318;28;20448;-78
2021/08/20 09:26:31;;;;;;;0.80;0.80;;;22.20;80.90;;;;;;5056543;28;20540;-77
2021/08/20 09:29:12;;;;;;;1.47;1.10;;;22.20;81.40;;;;;;5055202;28;20457;-77
2021/08/20 09:31:50;;;;;;;0.60;0.50;;;22.20;82.10;;;;;;5055321;28;20450;-77
2021/08/20 09:34:17;;;;;;;1.13;0.50;;;22.40;79.70;;;;;;5054967;28;20440;-77
2021/08/20 09:36:44;;;;;;;0.70;0.63;;;22.50;77.80;;;;;;5055017;28;20441;-78
2021/08/20 09:39:11;;;;;;;0.50;0.40;;;22.80;79.60;;;;;;5054619;28;20469;-77
2021/08/20 09:41:45;;;;;;;1.80;0.40;;;23.00;78.00;;;;;;5054140;28;20489;-77
2021/08/20 09:44:24;;;;;;;0.73;0.60;;;23.10;75.60;;;;;;5054346;28;20459;-77
2021/08/20 09:46:52;;;;;;;0.40;0.40;;;23.20;75.50;;;;;;5054317;28;20437;-77
2021/08/20 09:49:19;;;;;;;0.60;0.60;;;23.30;75.00;;;;;;5054439;28;20465;-77
2021/08/20 09:51:47;;;;;;;0.73;0.50;;;23.40;75.10;;;;;;5054577;28;20460;-77
2021/08/20 09:54:16;;;;;;;2.30;0.50;;;23.70;74.20;;;;;;5054504;28;20824;-77
2021/08/20 09:56:45;;;;;;;0.50;0.40;;;23.90;74.00;;;;;;5054932;28;20966;-78
2021/08/20 09:59:13;;;;;;;1.43;0.40;;;24.30;72.10;;;;;;5054718;28;20481;-77
2021/08/20 10:01:42;;;;;;;1.07;0.40;;;24.70;71.50;;;;;;5055063;28;20846;-79
2021/08/20 10:04:12;;;;;;;2.80;0.73;;;25.40;69.10;;;;;;5055924;28;20895;-79
2021/08/20 10:06:40;;;;;;;1.10;0.60;;;25.90;66.40;;;;;;5056033;28;20430;-79
2021/08/20 10:09:08;;;;;;;2.83;1.20;;;26.30;64.40;;;;;;5055084;28;20469;-76
2021/08/20 10:11:41;;;;;;;0.90;0.80;;;26.40;62.00;;;;;;5054161;28;20450;-78
2021/08/20 10:14:09;;;;;;;1.17;1.07;;;26.50;60.90;;;;;;5054199;28;20430;-75
2021/08/20 10:16:37;;;;;;;2.40;2.20;;;26.60;60.70;;;;;;5054001;28;20452;-77
2021/08/20 10:19:05;;;;;;;2.40;1.30;;;26.30;60.00;;;;;;5054681;28;20976;-77
2021/08/20 10:21:34;;;;;;;4.40;1.33;;;26.00;61.20;;;;;;5053570;28;20449;-77
2021/08/20 10:24:02;;;;;;;1.77;1.40;;;25.50;62.20;;;;;;5053976;28;20445;-77
2021/08/20 10:26:30;;;;;;;1.40;1.30;;;25.10;66.00;;;;;;5053597;28;20464;-77
2021/08/20 10:28:58;;;;;;;2.50;1.30;;;25.10;68.40;;;;;;5054540;28;20461;-77
2021/08/20 10:31:27;;;;;;;1.57;1.47;;;25.20;65.80;;;;;;5054672;28;20426;-78
2021/08/20 10:33:55;;;;;;;3.47;2.33;;;25.10;64.50;;;;;;5052947;28;20441;-76
2021/08/20 10:36:36;;;;;;;3.10;1.93;;;24.90;66.90;;;;;;5053072;28;20437;-75
2021/08/20 10:39:05;;;;;;;3.70;2.13;;;24.70;68.60;;;;;;5052999;28;20469;-75
2021/08/20 10:41:32;;;;;;;4.33;1.90;;;24.60;68.50;;;;;;5052805;28;20515;-74
2021/08/20 10:44:01;;;;;;;1.90;1.80;;;24.70;68.50;;;;;;5053128;28;20445;-75
2021/08/20 10:47:08;;;;;;;5.57;1.80;;;25.00;67.60;;;;;;5053169;28;20452;-75
2021/08/20 10:49:45;;;;;;;7.47;2.63;;;25.20;66.80;;;;;;5052852;28;20504;-75
2021/08/20 10:52:32;;;;;;;1.80;1.70;;;25.10;66.30;;;;;;5056584;28;20436;-75
2021/08/20 10:55:11;;;;;;;2.33;1.87;;;25.10;66.10;;;;;;5056488;28;20798;-75
2021/08/20 10:58:04;;;;;;;2.80;1.90;;;25.30;66.30;;;;;;5056447;28;20426;-75
2021/08/20 11:00:33;;;;;;;1.47;1.37;;;26.30;63.90;;;;;;5056206;28;20943;-75
2021/08/20 11:03:00;;;;;;;2.10;2.00;;;27.30;59.30;;;;;;5056220;28;21057;-75
2021/08/20 11:05:40;;;;;;;3.53;2.03;;;28.20;56.80;;;;;;5056518;28;20446;-75
2021/08/20 11:08:42;;;;;;;1.90;1.80;;;28.60;55.90;;;;;;5057024;28;20465;-75
2021/08/20 11:11:44;;;;;;;2.50;1.87;;;28.80;52.80;;;;;;5056523;28;20421;-75
2021/08/20 11:14:32;;;;;;;1.73;1.50;;;28.30;54.10;;;;;;5056565;28;20445;-75
2021/08/20 11:16:59;;;;;;;2.27;1.70;;;27.70;54.20;;;;;;5056513;28;20521;-74
2021/08/20 11:19:52;;;;;;;2.03;1.60;;;27.10;57.10;;;;;;5056268;28;20468;-75
2021/08/20 11:22:22;;;;;;;2.53;1.40;;;26.80;57.20;;;;;;5056207;28;20848;-75
2021/08/20 11:25:12;;;;;;;2.17;1.37;;;26.50;57.80;;;;;;5056032;28;20800;-75
2021/08/20 11:27:40;;;;;;;2.83;1.27;;;26.10;57.30;;;;;;5055599;28;20855;-76
2021/08/20 11:30:07;;;;;;;5.73;1.40;;;25.80;58.30;;;;;;5056063;28;20477;-74
2021/08/20 11:32:34;;;;;;;1.20;1.00;;;25.50;58.50;;;;;;5056145;28;20855;-75
2021/08/20 11:35:01;;;;;;;1.13;1.03;;;25.30;60.40;;;;;;5055712;28;20916;-74
2021/08/20 11:37:29;;;;;;;1.27;1.17;;;25.10;59.80;;;;;;5055929;28;20520;-73
2021/08/20 11:40:06;;;;;;;0.97;0.93;;;25.20;59.30;;;;;;5055987;28;20433;-75
2021/08/20 11:42:33;;;;;;;1.20;1.13;;;25.10;60.50;;;;;;5055553;28;20998;-74
2021/08/20 11:45:17;;;;;;;1.20;1.17;;;25.00;60.30;;;;;;5055859;28;20442;-74
2021/08/20 11:47:44;;;;;;;1.03;1.00;;;24.90;62.20;;;;;;5055742;28;20413;-73
2021/08/20 11:50:12;;;;;;;1.53;1.40;;;24.80;59.80;;;;;;5055795;28;20954;-74
2021/08/20 11:52:48;;;;;;;1.87;1.40;;;24.80;61.30;;;;;;5055566;28;20437;-73
2021/08/20 11:55:17;;;;;;;6.40;1.33;;;24.70;60.40;;;;;;5055652;28;20880;-74
2021/08/20 11:57:44;;;;;;;2.10;1.20;;;24.70;62.40;;;;;;5055626;28;20928;-74
2021/08/20 12:00:11;;;;;;;1.37;1.03;;;24.80;60.50;;;;;;5055407;28;20496;-74
2021/08/20 12:02:38;;;;;;;2.40;1.63;;;25.00;62.40;;;;;;5054664;28;20490;-74
2021/08/20 12:05:16;;;;;;;2.60;1.20;;;25.10;59.20;;;;;;5055451;28;20479;-74
2021/08/20 12:07:42;;;;;;;1.53;1.20;;;25.10;61.30;;;;;;5055203;28;20452;-74
2021/08/20 12:10:13;;;;;;;3.00;1.57;;;25.10;60.10;;;;;;5055290;28;20453;-75
2021/08/20 12:12:41;;;;;;;1.90;1.40;;;25.10;60.50;;;;;;5055408;28;20434;-75
2021/08/20 12:15:09;;;;;;;2.50;1.90;;;24.90;60.20;;;;;;5055389;28;20515;-75
2021/08/20 12:17:36;;;;;;;1.90;1.80;;;24.90;61.30;;;;;;5054815;28;20897;-74
2021/08/20 12:20:19;;;;;;;2.13;1.63;;;24.80;60.30;;;;;;5055103;28;20896;-75
2021/08/20 12:22:49;;;;;;;1.10;1.10;;;24.80;61.80;;;;;;5054921;28;20470;-74
2021/08/20 12:25:19;;;;;;;1.40;1.30;;;25.30;62.20;;;;;;5055008;28;20456;-74
2021/08/20 12:27:47;;;;;;;1.53;1.17;;;25.60;59.90;;;;;;5054832;28;20971;-74
2021/08/20 12:30:15;;;;;;;1.30;1.20;;;25.60;59.60;;;;;;5054882;28;20448;-75
2021/08/20 12:32:44;;;;;;;1.20;1.07;;;25.60;59.20;;;;;;5054924;28;20799;-75
2021/08/20 12:35:16;;;;;;;1.20;1.10;;;25.40;58.60;;;;;;5054892;28;20445;-75
2021/08/20 12:38:01;;;;;;;2.80;1.40;;;25.10;59.60;;;;;;5054712;28;20459;-74
2021/08/20 12:40:42;;;;;;;2.10;1.33;;;24.90;60.30;;;;;;5054719;28;20778;-75
2021/08/20 12:43:24;;;;;;;1.77;1.20;;;24.70;61.00;;;;;;5055097;28;20469;-74
2021/08/20 12:46:08;;;;;;;2.30;1.67;;;24.50;61.80;;;;;;5054659;28;20442;-75
2021/08/20 12:48:35;;;;;;;1.40;1.30;;;24.30;62.40;;;;;;5053426;28;21133;-75